Time;durP1;ratioP1;P1;durP2;ratioP2;P2;SDS_P1;SDS_P2;PMS_P1;PMS_P2;Temp;Humidity;BMP_temperature;BMP_pressure;BME280_temperature;BME280_humidity;BME280_pressure;Samples;Min_cycle;Max_cycle;Signal;HPM_P1;HPM_P2
2022/07/29 00:00:53;;;;;;;9.82;8.75;;;;;;;21.79;62.69;94808.19;4213740;28;20061;-63
2022/07/29 00:02:55;;;;;;;12.32;8.88;;;;;;;21.84;62.67;94810.16;4209089;28;20059;-60
2022/07/29 00:04:58;;;;;;;13.18;8.70;;;;;;;21.86;62.69;94822.22;4208284;28;20078;-60
2022/07/29 00:07:00;;;;;;;9.65;8.43;;;;;;;21.89;62.70;94827.09;4222189;28;20425;-62
2022/07/29 00:09:02;;;;;;;10.18;8.40;;;;;;;21.90;62.62;94830.59;4221763;28;20179;-62
2022/07/29 00:11:04;;;;;;;9.23;7.20;;;;;;;21.86;62.28;94826.75;4214631;28;20505;-61
2022/07/29 00:13:07;;;;;;;10.93;8.10;;;;;;;21.84;62.06;94826.16;4213157;28;20131;-60
2022/07/29 00:15:09;;;;;;;9.07;7.80;;;;;;;21.86;62.11;94826.75;4207965;28;20562;-55
2022/07/29 00:17:12;;;;;;;9.15;7.45;;;;;;;21.89;61.95;94828.97;4206805;28;20068;-59
2022/07/29 00:19:20;;;;;;;10.63;7.65;;;;;;;21.92;61.89;94823.19;4224991;28;20695;-62
2022/07/29 00:21:23;;;;;;;11.43;7.18;;;;;;;21.92;61.41;94814.34;4219125;28;20459;-60
2022/07/29 00:23:25;;;;;;;10.07;6.68;;;;;;;21.92;61.80;94814.34;4214467;28;20073;-57
2022/07/29 00:25:27;;;;;;;8.70;7.22;;;;;;;21.90;61.63;94806.59;4224363;28;20055;-56
2022/07/29 00:27:28;;;;;;;8.23;7.40;;;;;;;21.94;61.57;94813.09;4209010;28;20105;-56
2022/07/29 00:29:30;;;;;;;9.32;6.35;;;;;;;21.99;61.52;94815.91;4207108;28;20455;-53
2022/07/29 00:31:35;;;;;;;9.75;7.50;;;;;;;22.05;61.58;94819.53;4222686;28;20079;-52
2022/07/29 00:33:37;;;;;;;8.13;7.00;;;;;;;22.09;61.27;94818.00;4216205;28;20512;-50
2022/07/29 00:35:44;;;;;;;7.97;7.10;;;;;;;21.90;61.33;94814.59;4218805;28;20100;-53
2022/07/29 00:37:46;;;;;;;8.80;7.20;;;;;;;21.74;62.04;94815.22;4214390;28;20386;-48
2022/07/29 00:39:48;;;;;;;11.57;7.10;;;;;;;21.60;62.35;94815.41;4209165;28;21368;-51
2022/07/29 00:41:50;;;;;;;9.32;7.60;;;;;;;21.28;63.56;94820.88;4208042;28;20100;-51
2022/07/29 00:43:51;;;;;;;12.93;7.28;;;;;;;21.25;63.57;94824.00;4208503;28;20473;-54
2022/07/29 00:45:53;;;;;;;7.72;6.93;;;;;;;21.34;63.87;94821.00;4216483;28;20052;-48
2022/07/29 00:47:55;;;;;;;8.95;8.05;;;;;;;21.41;63.50;94827.09;4225308;28;20039;-48
2022/07/29 00:49:57;;;;;;;9.25;7.43;;;;;;;21.42;63.41;94832.25;4224699;28;20071;-51
2022/07/29 00:52:02;;;;;;;10.07;8.57;;;;;;;21.28;64.36;94836.84;4213551;28;20536;-52
2022/07/29 00:54:04;;;;;;;11.55;9.90;;;;;;;20.71;66.39;94838.84;4207961;28;20394;-53
2022/07/29 00:56:06;;;;;;;12.30;9.57;;;;;;;20.67;66.97;94837.66;4223689;28;20268;-53
2022/07/29 00:58:08;;;;;;;12.45;10.73;;;;;;;20.56;67.84;94827.69;4220236;28;20173;-52
2022/07/29 01:00:13;;;;;;;14.82;10.27;;;;;;;20.62;67.65;94825.00;4216314;28;20795;-50
2022/07/29 01:02:15;;;;;;;12.07;10.85;;;;;;;20.61;67.74;94827.91;4218725;28;20081;-55
2022/07/29 01:04:17;;;;;;;12.40;10.82;;;;;;;20.39;68.73;94832.75;4221967;28;20134;-54
2022/07/29 01:06:20;;;;;;;13.02;11.25;;;;;;;20.35;68.72;94820.91;4223933;28;20054;-53
2022/07/29 01:08:22;;;;;;;12.98;11.50;;;;;;;20.02;70.06;94830.75;4220870;28;20123;-52
2022/07/29 01:10:24;;;;;;;14.23;11.50;;;;;;;19.99;70.38;94817.09;4218349;27;20051;-54
2022/07/29 01:12:27;;;;;;;14.13;11.57;;;;;;;20.08;70.04;94817.66;4225667;28;20115;-54
2022/07/29 01:14:29;;;;;;;12.93;11.65;;;;;;;19.94;70.66;94817.72;4209024;28;20505;-52
2022/07/29 01:16:32;;;;;;;14.77;11.50;;;;;;;19.96;70.34;94813.03;4221492;28;20117;-51
2022/07/29 01:18:39;;;;;;;12.65;11.35;;;;;;;19.95;70.82;94808.72;4207741;28;20056;-52
2022/07/29 01:21:05;;;;;;;16.13;12.05;;;;;;;20.04;70.15;94811.94;4216680;28;20055;-53
2022/07/29 01:23:42;;;;;;;12.55;10.98;;;;;;;20.16;69.92;94804.09;4208478;28;20067;-52
2022/07/29 01:26:00;;;;;;;13.07;10.80;;;;;;;20.36;69.29;94804.75;4203134;28;20121;-53
2022/07/29 01:28:03;;;;;;;14.63;10.68;;;;;;;20.51;68.76;94803.59;4206894;28;20068;-55
2022/07/29 01:30:06;;;;;;;11.30;10.05;;;;;;;20.66;68.41;94798.78;4209436;28;20048;-50
2022/07/29 01:32:10;;;;;;;12.52;10.32;;;;;;;20.82;67.88;94794.72;4209894;28;20086;-55
2022/07/29 01:34:45;;;;;;;13.23;11.15;;;;;;;20.96;67.02;94795.41;4217316;28;20066;-54
2022/07/29 01:36:56;;;;;;;13.25;10.65;;;;;;;21.03;66.93;94796.97;4224632;28;20073;-52
2022/07/29 01:39:04;;;;;;;12.82;10.25;;;;;;;21.11;66.48;94795.88;4211575;28;20140;-52
2022/07/29 01:41:09;;;;;;;14.02;11.00;;;;;;;21.16;66.29;94793.34;4216465;28;20048;-50
2022/07/29 01:43:13;;;;;;;12.43;10.52;;;;;;;21.23;66.17;94791.44;4210974;28;20051;-53
2022/07/29 01:45:19;;;;;;;13.13;10.25;;;;;;;21.29;65.85;94792.38;4223918;28;20051;-54
2022/07/29 01:47:25;;;;;;;13.43;10.70;;;;;;;21.37;65.76;94796.59;4211898;28;20052;-54
2022/07/29 01:49:30;;;;;;;12.30;10.60;;;;;;;21.41;65.44;94795.13;4225070;28;20051;-51
2022/07/29 01:51:38;;;;;;;12.20;10.95;;;;;;;21.42;65.20;94794.09;4227400;28;20143;-53
2022/07/29 01:54:03;;;;;;;14.82;11.40;;;;;;;21.35;65.09;94790.69;4218547;28;20121;-50
2022/07/29 01:56:06;;;;;;;12.05;10.80;;;;;;;21.31;65.25;94790.31;4211504;28;20056;-53
2022/07/29 01:58:08;;;;;;;14.50;11.73;;;;;;;21.31;65.24;94790.31;4224162;28;20055;-52
2022/07/29 02:00:11;;;;;;;15.45;11.05;;;;;;;21.32;65.42;94789.28;4211888;28;21300;-53
2022/07/29 02:02:15;;;;;;;13.75;11.18;;;;;;;21.37;65.56;94791.25;4219670;28;20059;-51
2022/07/29 02:04:18;;;;;;;11.23;9.90;;;;;;;21.42;65.28;94786.09;4217094;27;20121;-53
2022/07/29 02:06:31;;;;;;;13.98;10.98;;;;;;;21.46;65.03;94782.75;4210344;28;20063;-51
2022/07/29 02:08:33;;;;;;;13.10;11.30;;;;;;;21.47;64.91;94786.25;4221271;28;20064;-55
2022/07/29 02:10:36;;;;;;;10.98;9.88;;;;;;;21.52;64.99;94774.91;4218697;28;20052;-50
2022/07/29 02:12:39;;;;;;;12.70;10.02;;;;;;;21.56;65.00;94784.09;4204641;28;20052;-53
2022/07/29 02:14:44;;;;;;;11.80;10.60;;;;;;;21.59;64.52;94779.09;4214775;28;20163;-53
2022/07/29 02:16:50;;;;;;;11.65;10.23;;;;;;;21.57;64.44;94781.19;4222907;28;20055;-52
2022/07/29 02:18:53;;;;;;;13.07;10.18;;;;;;;21.55;64.48;94772.59;4211689;28;20588;-51
2022/07/29 02:20:55;;;;;;;;;;;;;;;21.54;64.59;94773.66;4211772;28;20395;-50
2022/07/29 02:22:59;;;;;;;12.60;9.82;;;;;;;21.54;64.65;94775.50;4210336;28;19951;-52
2022/07/29 02:25:01;;;;;;;11.77;9.98;;;;;;;21.50;64.64;94769.81;4208852;28;20214;-52
2022/07/29 02:27:04;;;;;;;11.98;8.82;;;;;;;21.47;64.25;94773.75;4225252;28;20052;-52
2022/07/29 02:29:06;;;;;;;10.10;9.02;;;;;;;21.46;64.16;94772.09;4210950;28;20154;-52
2022/07/29 02:31:09;;;;;;;12.82;9.27;;;;;;;21.48;64.12;94767.34;4209613;28;20469;-53
2022/07/29 02:33:13;;;;;;;14.37;9.00;;;;;;;21.51;64.05;94762.63;4211212;28;20401;-54
2022/07/29 02:35:15;;;;;;;13.45;9.20;;;;;;;21.49;63.89;94754.88;4212265;28;20155;-53
2022/07/29 02:37:18;;;;;;;10.32;9.25;;;;;;;21.48;64.15;94756.69;4208960;28;20048;-50
2022/07/29 02:39:20;;;;;;;13.77;9.90;;;;;;;21.48;64.05;94758.56;4212489;28;20158;-53
2022/07/29 02:41:30;;;;;;;11.38;9.38;;;;;;;21.51;64.32;94754.63;4217147;28;20471;-51
2022/07/29 02:43:34;;;;;;;13.27;10.77;;;;;;;21.55;64.44;94748.59;4223242;28;20488;-53
2022/07/29 02:45:36;;;;;;;12.20;10.90;;;;;;;21.58;64.31;94753.50;4211698;28;20067;-52
2022/07/29 02:47:43;;;;;;;12.05;10.38;;;;;;;21.62;64.35;94751.22;4210330;28;20296;-53
2022/07/29 02:49:59;;;;;;;13.55;10.32;;;;;;;21.64;64.41;94749.94;4215414;28;20199;-52
2022/07/29 02:52:23;;;;;;;16.20;11.18;;;;;;;21.66;64.19;94747.84;4216518;28;20395;-48
2022/07/29 02:54:39;;;;;;;14.57;11.95;;;;;;;21.48;64.68;94751.38;4208626;28;20101;-49
2022/07/29 02:56:42;;;;;;;13.63;11.88;;;;;;;21.11;65.71;94750.59;4209383;28;20059;-53
2022/07/29 02:58:49;;;;;;;13.63;11.48;;;;;;;20.87;66.66;94752.28;4220379;28;20572;-50
2022/07/29 03:00:52;;;;;;;13.68;12.20;;;;;;;20.83;66.96;94749.25;4223640;28;20135;-51
2022/07/29 03:02:56;;;;;;;14.60;11.93;;;;;;;20.82;66.99;94744.97;4212247;28;20120;-48
2022/07/29 03:04:59;;;;;;;14.15;12.15;;;;;;;20.86;67.11;94750.66;4224425;28;20476;-52
2022/07/29 03:07:02;;;;;;;13.82;12.43;;;;;;;20.79;67.35;94752.59;4209765;28;20056;-52
2022/07/29 03:09:04;;;;;;;16.30;13.55;;;;;;;20.73;67.44;94756.13;4208822;28;20059;-53
2022/07/29 03:11:14;;;;;;;14.52;11.77;;;;;;;20.67;67.73;94752.47;4221982;28;20154;-52
2022/07/29 03:13:16;;;;;;;13.77;11.45;;;;;;;20.59;67.96;94750.13;4214595;28;20148;-53
2022/07/29 03:15:18;;;;;;;13.60;11.80;;;;;;;20.56;68.00;94747.88;4214130;28;20090;-51
2022/07/29 03:17:21;;;;;;;13.32;11.90;;;;;;;20.58;68.16;94754.63;4209100;28;20051;-52
2022/07/29 03:19:23;;;;;;;16.63;12.55;;;;;;;20.65;68.20;94759.91;4218252;28;20055;-53
2022/07/29 03:21:24;;;;;;;12.45;11.15;;;;;;;20.77;67.96;94762.63;4212894;28;20110;-57
2022/07/29 03:23:27;;;;;;;15.07;11.30;;;;;;;20.86;67.44;94767.47;4208199;28;20052;-54
2022/07/29 03:25:35;;;;;;;17.45;12.52;;;;;;;20.98;66.87;94764.06;4210588;28;20068;-54
2022/07/29 03:27:37;;;;;;;16.85;11.25;;;;;;;21.07;66.49;94757.38;4214799;28;20052;-51
2022/07/29 03:29:39;;;;;;;14.07;10.75;;;;;;;21.10;65.95;94762.28;4226498;28;20055;-53
2022/07/29 03:31:44;;;;;;;15.73;10.63;;;;;;;21.07;65.63;94762.72;4226890;28;20138;-52
2022/07/29 03:33:46;;;;;;;13.68;10.35;;;;;;;21.06;65.51;94767.25;4223484;28;20539;-53
2022/07/29 03:35:48;;;;;;;14.60;9.82;;;;;;;21.04;65.38;94771.97;4215234;28;20047;-50
2022/07/29 03:37:50;;;;;;;13.38;10.10;;;;;;;21.06;65.09;94761.09;4218427;28;20336;-49
2022/07/29 03:39:55;;;;;;;13.27;10.00;;;;;;;21.05;64.95;94772.78;4209621;28;20166;-49
2022/07/29 03:41:58;;;;;;;12.90;10.30;;;;;;;21.03;65.14;94773.00;4211840;28;20048;-48
2022/07/29 03:44:00;;;;;;;13.15;9.35;;;;;;;21.06;65.15;94772.56;4222527;28;20123;-48
2022/07/29 03:46:04;;;;;;;12.98;9.77;;;;;;;21.11;65.06;94774.56;4213903;28;20521;-51
2022/07/29 03:48:13;;;;;;;13.68;10.40;;;;;;;21.10;64.61;94772.09;4209906;28;20511;-50
2022/07/29 03:50:15;;;;;;;16.50;10.27;;;;;;;21.08;64.76;94767.03;4210354;28;20105;-48
2022/07/29 03:52:17;;;;;;;11.88;10.68;;;;;;;21.07;65.12;94773.38;4207207;28;20055;-53
2022/07/29 03:54:19;;;;;;;14.45;11.40;;;;;;;21.10;65.15;94764.94;4205850;28;20097;-52
2022/07/29 03:56:22;;;;;;;13.60;12.27;;;;;;;21.16;65.17;94773.88;4209995;28;20040;-51
2022/07/29 03:58:26;;;;;;;12.82;10.95;;;;;;;21.19;64.96;94781.44;4209714;28;20047;-53
2022/07/29 04:00:28;;;;;;;14.82;11.77;;;;;;;21.23;64.95;94780.78;4217936;28;20117;-52
2022/07/29 04:02:31;;;;;;;15.50;11.52;;;;;;;21.00;65.66;94784.09;4224881;28;20520;-52
2022/07/29 04:04:36;;;;;;;13.00;11.35;;;;;;;20.69;66.61;94782.34;4223604;28;20070;-54
2022/07/29 04:06:42;;;;;;;17.33;12.57;;;;;;;20.37;67.73;94781.59;4208260;28;20144;-52
2022/07/29 04:08:44;;;;;;;17.05;13.55;;;;;;;20.05;68.93;94785.13;4216199;28;20808;-51
2022/07/29 04:10:47;;;;;;;14.02;11.82;;;;;;;19.94;69.94;94780.50;4226308;28;20559;-49
2022/07/29 04:12:49;;;;;;;17.48;12.90;;;;;;;20.10;69.47;94787.13;4212932;28;20135;-52
2022/07/29 04:14:51;;;;;;;17.17;12.82;;;;;;;20.09;69.41;94782.88;4225080;28;20507;-52
2022/07/29 04:16:52;;;;;;;18.85;13.80;;;;;;;20.14;69.44;94779.56;4221329;28;20123;-52
2022/07/29 04:18:54;;;;;;;14.68;12.52;;;;;;;20.34;68.96;94776.72;4208996;28;20355;-51
2022/07/29 04:20:58;;;;;;;14.88;12.95;;;;;;;20.55;68.16;94781.66;4213528;28;20546;-52
2022/07/29 04:23:00;;;;;;;15.07;12.95;;;;;;;20.75;67.67;94772.69;4212565;28;20136;-52
2022/07/29 04:25:02;;;;;;;16.23;12.18;;;;;;;20.94;66.90;94774.31;4209862;28;20139;-49
2022/07/29 04:27:05;;;;;;;18.27;13.48;;;;;;;21.14;66.08;94774.09;4222737;28;20063;-52
2022/07/29 04:29:06;;;;;;;15.77;12.95;;;;;;;21.23;65.63;94774.59;4209258;28;20048;-53
2022/07/29 04:31:09;;;;;;;18.00;12.57;;;;;;;21.37;65.39;94777.94;4209591;28;20654;-53
2022/07/29 04:33:11;;;;;;;15.77;12.55;;;;;;;21.48;64.81;94779.88;4221400;28;20043;-51
2022/07/29 04:35:13;;;;;;;16.55;12.90;;;;;;;21.58;64.44;94784.69;4211589;28;20068;-53
2022/07/29 04:37:15;;;;;;;16.70;11.95;;;;;;;21.66;64.11;94787.84;4209029;28;20051;-50
2022/07/29 04:39:18;;;;;;;15.70;12.25;;;;;;;21.77;64.01;94788.09;4214777;28;20148;-51
2022/07/29 04:41:23;;;;;;;14.65;12.93;;;;;;;21.82;63.65;94788.25;4216033;28;20200;-53
2022/07/29 04:43:34;;;;;;;13.40;11.98;;;;;;;21.84;63.32;94783.50;4214536;28;20059;-57
2022/07/29 04:45:37;;;;;;;15.13;13.00;;;;;;;21.87;63.39;94789.19;4209298;28;20055;-53
2022/07/29 04:47:40;;;;;;;15.20;12.60;;;;;;;21.84;63.31;94794.97;4211784;28;20048;-53
2022/07/29 04:49:42;;;;;;;13.50;11.88;;;;;;;21.85;63.57;94788.63;4221283;28;20056;-54
2022/07/29 04:51:43;;;;;;;17.25;12.55;;;;;;;21.97;63.19;94799.31;4216120;28;20078;-51
2022/07/29 04:53:45;;;;;;;19.20;12.10;;;;;;;22.02;62.92;94796.75;4215056;28;20109;-55
2022/07/29 04:55:47;;;;;;;18.05;13.82;;;;;;;22.09;62.61;94800.16;4209847;28;20056;-52
2022/07/29 04:57:48;;;;;;;17.77;13.23;;;;;;;22.04;62.68;94800.00;4222265;28;20104;-52
2022/07/29 04:59:50;;;;;;;15.85;13.18;;;;;;;21.84;63.38;94800.31;4213512;28;20350;-53
2022/07/29 05:01:52;;;;;;;18.95;13.25;;;;;;;21.77;63.57;94801.44;4218627;28;20347;-55
2022/07/29 05:03:54;;;;;;;17.67;12.65;;;;;;;21.76;63.87;94795.28;4219099;28;20059;-54
2022/07/29 05:06:01;;;;;;;13.98;12.02;;;;;;;21.80;63.72;94801.78;4226782;28;20119;-53
2022/07/29 05:08:03;;;;;;;16.20;12.45;;;;;;;21.88;63.51;94798.81;4210226;28;20048;-52
2022/07/29 05:10:05;;;;;;;16.98;13.10;;;;;;;21.95;63.17;94804.06;4223547;28;20048;-52
2022/07/29 05:12:07;;;;;;;29.98;13.27;;;;;;;22.06;63.15;94795.25;4211930;28;20071;-52
2022/07/29 05:14:08;;;;;;;17.48;12.75;;;;;;;22.17;62.72;94798.19;4212948;28;20052;-51
2022/07/29 05:16:10;;;;;;;19.02;11.85;;;;;;;22.26;62.54;94797.69;4212660;28;20385;-52
2022/07/29 05:18:12;;;;;;;13.60;11.00;;;;;;;22.35;61.77;94800.81;4211561;28;20048;-54
2022/07/29 05:20:14;;;;;;;14.25;9.88;;;;;;;22.40;61.40;94806.28;4212224;28;20520;-49
2022/07/29 05:22:15;;;;;;;11.38;8.02;;;;;;;22.46;61.15;94808.03;4218922;28;20044;-53
2022/07/29 05:24:17;;;;;;;9.73;7.07;;;;;;;22.58;61.15;94810.69;4211730;28;20048;-53
2022/07/29 05:26:20;;;;;;;9.05;6.70;;;;;;;22.72;60.40;94813.16;4212612;28;20513;-51
2022/07/29 05:28:22;;;;;;;10.80;7.45;;;;;;;22.81;59.82;94803.75;4211286;28;20060;-50
2022/07/29 05:30:23;;;;;;;9.40;7.55;;;;;;;22.89;59.94;94798.06;4212211;28;20056;-52
2022/07/29 05:32:25;;;;;;;10.55;7.53;;;;;;;22.95;59.72;94805.16;4211453;28;20124;-54
2022/07/29 05:34:27;;;;;;;11.15;7.70;;;;;;;22.98;59.68;94798.53;4222107;28;20058;-50
2022/07/29 05:36:28;;;;;;;11.45;7.55;;;;;;;23.05;59.91;94801.91;4229262;27;20109;-53
2022/07/29 05:38:30;;;;;;;12.93;8.40;;;;;;;23.15;59.58;94806.66;4210198;27;20806;-50
2022/07/29 05:40:32;;;;;;;13.13;8.10;;;;;;;23.16;59.27;94795.72;4224656;28;20528;-50
2022/07/29 05:42:34;;;;;;;11.82;8.02;;;;;;;23.06;59.25;94806.22;4219725;27;20102;-51
2022/07/29 05:44:37;;;;;;;10.30;8.75;;;;;;;23.01;59.48;94803.41;4222859;28;20051;-51
2022/07/29 05:46:39;;;;;;;9.25;8.23;;;;;;;23.04;59.73;94808.31;4211638;28;20048;-48
2022/07/29 05:48:41;;;;;;;11.43;8.52;;;;;;;23.11;59.44;94803.66;4210485;28;20112;-54
2022/07/29 05:50:43;;;;;;;10.68;7.78;;;;;;;23.25;59.12;94805.03;4211719;28;20048;-53
2022/07/29 05:52:44;;;;;;;11.43;8.45;;;;;;;23.42;59.25;94809.63;4211244;28;20116;-53
2022/07/29 05:54:47;;;;;;;14.10;9.00;;;;;;;23.51;58.58;94814.38;4210776;28;20208;-54
2022/07/29 05:56:48;;;;;;;11.68;9.05;;;;;;;23.58;58.30;94819.59;4211935;28;20055;-53
2022/07/29 05:58:51;;;;;;;11.93;9.70;;;;;;;23.64;58.03;94815.97;4211934;28;20604;-53
2022/07/29 06:00:53;;;;;;;10.03;8.03;;;;;;;23.68;58.01;94813.59;4211534;28;20052;-55
2022/07/29 06:02:54;;;;;;;10.85;8.32;;;;;;;23.77;57.95;94822.09;4213240;28;20136;-51
2022/07/29 06:04:56;;;;;;;10.75;7.97;;;;;;;23.90;57.65;94817.28;4223478;28;20105;-51
2022/07/29 06:06:58;;;;;;;15.43;9.95;;;;;;;24.00;56.95;94821.19;4210895;28;20147;-50
2022/07/29 06:09:00;;;;;;;8.45;7.55;;;;;;;23.80;56.84;94817.09;4210610;28;20055;-53
2022/07/29 06:11:13;;;;;;;10.15;7.60;;;;;;;23.66;57.40;94816.53;4211614;28;20430;-52
2022/07/29 06:13:15;;;;;;;9.40;6.72;;;;;;;23.48;57.25;94814.03;4211607;28;20105;-49
2022/07/29 06:15:17;;;;;;;9.30;6.70;;;;;;;23.45;57.59;94817.19;4211456;28;20106;-50
2022/07/29 06:17:19;;;;;;;8.18;6.28;;;;;;;23.25;57.27;94813.03;4211122;28;20089;-53
2022/07/29 06:19:21;;;;;;;8.95;6.15;;;;;;;23.30;57.46;94813.13;4211193;28;20052;-48
2022/07/29 06:21:22;;;;;;;12.43;6.43;;;;;;;23.46;56.82;94818.78;4217311;28;20100;-49
2022/07/29 06:23:24;;;;;;;10.73;6.85;;;;;;;23.63;56.31;94817.00;4209619;28;20480;-52
2022/07/29 06:25:28;;;;;;;12.50;6.60;;;;;;;23.76;56.74;94815.94;4210998;28;20453;-51
2022/07/29 06:27:30;;;;;;;8.50;5.60;;;;;;;23.91;56.58;94824.25;4219795;28;20594;-53
2022/07/29 06:29:32;;;;;;;7.50;5.90;;;;;;;23.85;54.92;94811.03;4227522;27;20093;-48
2022/07/29 06:31:34;;;;;;;6.88;6.05;;;;;;;23.71;55.44;94811.28;4213124;28;20074;-52
2022/07/29 06:33:36;;;;;;;6.82;5.63;;;;;;;23.69;55.19;94816.06;4211177;28;20105;-53
2022/07/29 06:35:38;;;;;;;10.25;5.63;;;;;;;23.79;55.27;94820.00;4210621;28;20508;-51
2022/07/29 06:37:43;;;;;;;8.25;6.47;;;;;;;23.94;55.41;94814.97;4218803;28;20147;-52
2022/07/29 06:39:47;;;;;;;7.55;5.45;;;;;;;24.05;55.28;94808.72;4215207;28;20040;-52
2022/07/29 06:41:50;;;;;;;13.27;11.98;;;;;;;24.23;55.54;94807.69;4221589;28;20534;-48
2022/07/29 06:43:52;;;;;;;11.02;6.65;;;;;;;24.46;55.27;94808.63;4218242;28;20639;-53
2022/07/29 06:45:59;;;;;;;6.47;5.32;;;;;;;24.42;53.70;94810.97;4210834;28;20147;-51
2022/07/29 06:48:01;;;;;;;5.63;5.13;;;;;;;24.56;53.40;94803.44;4209509;28;20129;-54
2022/07/29 06:50:04;;;;;;;6.68;5.60;;;;;;;24.63;53.26;94809.47;4211245;28;20105;-54
2022/07/29 06:52:08;;;;;;;8.25;5.38;;;;;;;24.69;52.96;94807.66;4210124;28;20105;-51
2022/07/29 06:54:10;;;;;;;14.00;6.25;;;;;;;24.66;52.96;94802.78;4223490;28;20048;-53
2022/07/29 06:56:13;;;;;;;9.73;5.55;;;;;;;24.61;52.79;94808.88;4213282;28;20052;-55
2022/07/29 06:58:17;;;;;;;7.80;5.25;;;;;;;24.45;53.17;94801.63;4220210;28;20044;-52
2022/07/29 07:00:19;;;;;;;7.18;5.55;;;;;;;24.56;53.70;94805.31;4219119;28;20047;-55
2022/07/29 07:02:21;;;;;;;6.97;5.45;;;;;;;24.41;53.31;94801.28;4214443;28;20477;-50
2022/07/29 07:04:23;;;;;;;8.98;5.47;;;;;;;24.33;53.83;94801.72;4223899;28;20048;-55
2022/07/29 07:06:24;;;;;;;14.82;6.22;;;;;;;24.19;54.10;94806.56;4209324;28;20117;-53
2022/07/29 07:08:26;;;;;;;7.40;5.63;;;;;;;24.22;54.39;94800.72;4208229;28;20133;-51
2022/07/29 07:10:28;;;;;;;11.02;4.78;;;;;;;24.44;54.71;94795.47;4214297;28;20444;-54
2022/07/29 07:12:29;;;;;;;7.68;5.15;;;;;;;24.72;53.93;94791.09;4209839;28;20105;-54
2022/07/29 07:14:31;;;;;;;7.70;5.10;;;;;;;24.96;53.30;94799.75;4212114;28;20193;-53
2022/07/29 07:16:33;;;;;;;5.95;5.13;;;;;;;25.20;52.68;94799.56;4223788;28;20051;-50
2022/07/29 07:18:35;;;;;;;8.07;5.93;;;;;;;25.41;51.92;94792.59;4214334;28;20045;-52
2022/07/29 07:20:36;;;;;;;14.38;5.82;;;;;;;25.41;52.15;94798.78;4222006;28;20097;-51
2022/07/29 07:22:38;;;;;;;6.63;5.53;;;;;;;25.49;51.98;94801.03;4217356;28;20052;-53
2022/07/29 07:24:40;;;;;;;7.80;4.85;;;;;;;25.49;51.90;94795.66;4212135;28;20102;-53
2022/07/29 07:26:41;;;;;;;7.60;5.10;;;;;;;25.58;51.39;94792.53;4209507;28;20537;-52
2022/07/29 07:28:43;;;;;;;6.65;4.93;;;;;;;25.67;51.38;94799.88;4210435;28;20121;-53
2022/07/29 07:30:45;;;;;;;12.75;9.45;;;;;;;25.60;51.85;94799.28;4209342;28;20056;-56
2022/07/29 07:32:47;;;;;;;6.95;5.07;;;;;;;25.62;51.61;94796.31;4209281;28;20132;-53
2022/07/29 07:34:49;;;;;;;9.48;5.18;;;;;;;25.69;51.50;94789.72;4224236;28;20105;-51
2022/07/29 07:36:50;;;;;;;10.63;5.95;;;;;;;25.77;51.40;94795.69;4208953;28;20047;-52
2022/07/29 07:38:52;;;;;;;7.68;5.32;;;;;;;25.90;51.48;94796.16;4208954;28;20036;-54
2022/07/29 07:40:54;;;;;;;7.68;5.05;;;;;;;26.03;50.45;94794.94;4216411;28;20133;-48
2022/07/29 07:42:55;;;;;;;6.80;5.28;;;;;;;26.12;50.34;94789.91;4225072;28;20078;-51
2022/07/29 07:44:57;;;;;;;7.90;7.10;;;;;;;26.21;50.36;94798.31;4210447;28;20070;-50
2022/07/29 07:47:20;;;;;;;6.38;4.57;;;;;;;26.18;49.41;94798.81;4209465;28;20070;-51
2022/07/29 07:49:23;;;;;;;8.38;4.28;;;;;;;25.68;50.06;94795.31;4209486;28;20052;-52
2022/07/29 07:51:24;;;;;;;6.80;4.68;;;;;;;25.74;50.94;94791.63;4208988;28;20413;-52
2022/07/29 07:53:26;;;;;;;6.32;4.50;;;;;;;25.91;50.38;94794.25;4206718;28;20044;-52
2022/07/29 07:55:28;;;;;;;5.95;4.47;;;;;;;26.11;49.67;94790.97;4209955;28;20489;-55
2022/07/29 07:57:50;;;;;;;6.95;4.35;;;;;;;26.25;49.53;94792.19;4208937;28;20054;-53
2022/07/29 07:59:51;;;;;;;8.55;4.18;;;;;;;26.39;48.65;94789.06;4209290;28;20093;-50
2022/07/29 08:01:53;;;;;;;6.75;4.20;;;;;;;26.49;48.05;94787.28;4209302;28;20490;-52
2022/07/29 08:03:56;;;;;;;;;;;;;;;26.13;48.17;94786.97;4209108;28;20139;-53
2022/07/29 08:05:58;;;;;;;9.35;4.28;;;;;;;26.15;48.63;94786.72;4209168;28;19927;-51
2022/07/29 08:08:00;;;;;;;8.77;4.05;;;;;;;26.38;48.48;94785.56;4208025;28;20439;-52
2022/07/29 08:10:02;;;;;;;6.05;4.03;;;;;;;26.59;48.23;94791.13;4208192;28;20048;-54
2022/07/29 08:12:05;;;;;;;4.50;4.10;;;;;;;26.75;47.75;94791.00;4215860;28;20047;-56
2022/07/29 08:14:07;;;;;;;5.38;3.88;;;;;;;26.91;47.61;94778.47;4217108;28;20048;-55
2022/07/29 08:16:12;;;;;;;5.63;4.40;;;;;;;27.07;47.05;94782.06;4222013;28;20056;-56
2022/07/29 08:18:14;;;;;;;8.15;4.40;;;;;;;27.17;47.07;94782.13;4224071;28;20130;-49
2022/07/29 08:20:15;;;;;;;6.85;3.90;;;;;;;27.29;46.88;94789.19;4210272;28;20052;-54
2022/07/29 08:22:19;;;;;;;6.47;3.75;;;;;;;27.37;46.38;94783.31;4214648;28;20052;-50
2022/07/29 08:26:42;;;;;;;6.03;4.45;;;;;;;27.10;46.30;94781.56;4210717;28;19977;-52
2022/07/29 08:28:45;;;;;;;7.55;3.97;;;;;;;27.13;46.08;94786.41;4223658;28;20471;-50
2022/07/29 08:30:47;;;;;;;4.05;3.65;;;;;;;27.28;45.84;94788.38;4217408;28;20797;-52
2022/07/29 08:32:52;;;;;;;7.00;4.05;;;;;;;27.37;44.99;94789.50;4214596;28;20123;-53
2022/07/29 08:34:56;;;;;;;5.78;4.18;;;;;;;27.47;44.55;94790.59;4212961;28;20071;-51
2022/07/29 08:36:58;;;;;;;5.15;3.97;;;;;;;27.56;44.55;94784.47;4212390;28;20325;-49
2022/07/29 08:39:01;;;;;;;5.88;3.72;;;;;;;27.57;44.71;94786.06;4207912;28;20051;-52
2022/07/29 08:41:03;;;;;;;5.72;3.85;;;;;;;27.66;44.56;94781.03;4211194;28;20821;-50
2022/07/29 08:43:08;;;;;;;5.45;3.65;;;;;;;27.72;44.80;94792.59;4206714;28;20052;-54
2022/07/29 08:45:10;;;;;;;4.40;3.58;;;;;;;27.81;43.43;94779.44;4216208;28;20170;-58
2022/07/29 08:47:13;;;;;;;5.28;3.58;;;;;;;27.87;43.03;94781.91;4219192;28;20063;-50
2022/07/29 08:49:15;;;;;;;;;;;;;;;27.73;42.85;94776.19;4211800;28;20169;-50
2022/07/29 08:51:19;;;;;;;6.15;3.25;;;;;;;27.60;43.57;94773.16;4213601;28;19994;-53
2022/07/29 08:53:21;;;;;;;4.47;3.53;;;;;;;27.70;43.51;94773.19;4216680;28;20043;-52
2022/07/29 08:55:23;;;;;;;7.38;3.85;;;;;;;27.87;43.02;94783.78;4217949;28;20047;-49
2022/07/29 08:57:25;;;;;;;6.88;4.30;;;;;;;27.91;42.80;94772.22;4216394;28;20159;-50
2022/07/29 08:59:29;;;;;;;5.82;3.60;;;;;;;28.03;43.02;94780.06;4220661;28;20043;-51
2022/07/29 09:01:33;;;;;;;5.00;3.78;;;;;;;28.05;42.12;94775.22;4210545;28;20101;-54
2022/07/29 09:03:38;;;;;;;5.40;3.80;;;;;;;28.22;42.23;94774.94;4220311;28;20116;-57
2022/07/29 09:05:43;;;;;;;;;;;;;;;28.28;41.69;94776.56;4219077;28;20051;-51
2022/07/29 09:07:49;;;;;;;4.38;3.13;;;;;;;28.42;41.73;94768.78;4221090;28;19965;-58
2022/07/29 09:09:51;;;;;;;5.25;3.42;;;;;;;28.55;41.62;94760.19;4208951;28;20036;-56
2022/07/29 09:11:56;;;;;;;4.60;3.38;;;;;;;28.67;41.20;94765.28;4214557;28;20552;-59
2022/07/29 09:13:58;;;;;;;7.37;4.23;;;;;;;28.84;41.08;94765.00;4221267;28;20043;-56
2022/07/29 09:16:01;;;;;;;4.40;3.28;;;;;;;28.97;40.69;94766.31;4216463;28;20055;-59
2022/07/29 09:18:09;;;;;;;6.95;3.70;;;;;;;29.08;41.03;94767.94;4220379;28;20493;-59
2022/07/29 09:22:53;;;;;;;5.47;3.30;;;;;;;29.39;40.21;94754.34;4210191;28;20371;-56
2022/07/29 09:24:55;;;;;;;6.43;4.00;;;;;;;29.47;39.42;94761.06;4210408;28;20177;-54
2022/07/29 09:26:56;;;;;;;4.53;3.13;;;;;;;29.39;39.28;94759.75;4221963;28;20039;-56
2022/07/29 09:28:59;;;;;;;4.05;3.38;;;;;;;29.44;39.13;94759.72;4215024;28;20127;-57
2022/07/29 09:31:02;;;;;;;4.57;3.08;;;;;;;29.50;38.88;94755.13;4215781;28;20108;-48
2022/07/29 09:33:04;;;;;;;6.97;3.78;;;;;;;29.39;38.94;94765.97;4214934;28;20413;-48
2022/07/29 09:35:34;;;;;;;4.60;3.42;;;;;;;28.93;39.55;94754.44;4214212;27;20044;-49
2022/07/29 09:37:36;;;;;;;6.88;3.70;;;;;;;29.03;39.45;94757.13;4213475;28;20052;-50
2022/07/29 09:39:45;;;;;;;5.03;4.13;;;;;;;28.78;39.73;94758.81;4223513;28;20055;-46
2022/07/29 09:41:52;;;;;;;5.28;3.75;;;;;;;28.95;39.50;94747.72;4219765;28;20047;-49